createdAt,value
2023-03-26T00:04:10.600Z,0.7759197324414716
2023-03-26T00:10:31.225Z,1.1906354515050168
2023-03-26T00:16:54.370Z,0.6956521739130435
2023-03-26T00:24:11.308Z,0.45484949832775917
2023-03-26T00:30:31.068Z,0.5016722408026756
2023-03-26T00:36:51.209Z,0.8461538461538461
2023-03-26T00:43:13.866Z,0.7357859531772575
2023-03-26T00:49:33.648Z,0.4080267558528428
2023-03-26T00:55:54.288Z,0.48494983277591974
2023-03-26T01:02:15.498Z,0.5484949832775919
2023-03-26T01:08:36.215Z,0.4280936454849498
2023-03-26T01:14:56.958Z,0.35785953177257523
2023-03-26T01:21:17.473Z,0.22408026755852842
2023-03-26T01:27:38.589Z,0.1939799331103679
2023-03-26T01:33:58.334Z,0.23411371237458195
2023-03-26T01:40:19.823Z,0.23411371237458195
2023-03-26T01:46:40.897Z,0.5150501672240803
2023-03-26T01:53:02.934Z,0.3311036789297659
2023-03-26T01:59:23.351Z,0.29431438127090304
2023-03-26T02:05:42.163Z,0.4816053511705686
2023-03-26T02:12:02.930Z,0.68561872909699
2023-03-26T02:19:55.071Z,0.36454849498327757
2023-03-26T02:26:16.085Z,0.34782608695652173
2023-03-26T02:32:37.313Z,0.4916387959866221
2023-03-26T02:38:57.368Z,0.3979933110367893
2023-03-26T02:46:03.811Z,0.5886287625418061
2023-03-26T02:52:24.940Z,0.29431438127090304
2023-03-26T02:58:45.871Z,0.5852842809364549
2023-03-26T03:09:28.957Z,0.9230769230769231
2023-03-26T03:15:48.886Z,0.6053511705685619
2023-03-26T03:22:08.310Z,0.3411371237458194
2023-03-26T03:28:30.296Z,0.5953177257525084
2023-03-26T03:34:51.451Z,0.3612040133779264
2023-03-26T03:46:44.597Z,0.4916387959866221
2023-03-26T03:53:06.319Z,0.5150501672240803
2023-03-26T03:59:29.173Z,0.4782608695652174
2023-03-26T04:05:49.343Z,0.4080267558528428
2023-03-26T04:13:05.799Z,0.47491638795986624
2023-03-26T04:19:26.476Z,0.30434782608695654
2023-03-26T04:25:46.934Z,0.3979933110367893
2023-03-26T04:32:07.060Z,0.44816053511705684
2023-03-26T04:39:18.884Z,0.411371237458194
2023-03-26T04:45:38.343Z,0.17391304347826086
2023-03-26T04:51:57.940Z,0.2140468227424749
2023-03-26T04:58:18.180Z,0.6755852842809364
2023-03-26T05:09:31.592Z,0.23076923076923078
2023-03-26T05:15:52.181Z,0.29431438127090304
2023-03-26T05:22:14.574Z,0.12709030100334448
2023-03-26T05:28:33.988Z,0.14715719063545152
2023-03-26T05:34:55.341Z,0.03678929765886288
2023-03-26T05:41:17.521Z,0.12040133779264214
2023-03-26T05:47:41.951Z,0.12709030100334448
2023-03-26T05:54:07.825Z,0.12709030100334448
2023-03-26T06:00:32.251Z,0.5083612040133779
2023-03-26T06:08:29.484Z,0.22408026755852842
2023-03-26T06:14:52.993Z,0.14715719063545152
2023-03-26T06:27:40.382Z,0.22742474916387959
2023-03-26T06:40:16.032Z,0.2140468227424749
2023-03-26T06:46:41.061Z,0.3712374581939799
2023-03-26T06:57:03.438Z,0.3511705685618729
2023-03-26T07:04:14.384Z,0.45484949832775917
2023-03-26T07:10:37.070Z,0.40468227424749165
2023-03-26T07:32:27.564Z,0.39464882943143814
2023-03-26T07:38:50.695Z,0.1605351170568562
2023-03-26T07:45:38.015Z,0.3979933110367893
2023-03-26T07:51:59.294Z,0.7725752508361204
2023-03-26T07:58:20.669Z,0.6989966555183946
2023-03-26T08:04:41.980Z,0.903010033444816
2023-03-26T08:12:28.943Z,0.41471571906354515
2023-03-26T08:23:50.681Z,0.5384615384615384
2023-03-26T08:32:07.718Z,0.8896321070234113
2023-03-26T08:38:29.348Z,0.6889632107023411
2023-03-26T08:44:50.268Z,0.6755852842809364
2023-03-26T08:53:56.421Z,0.9698996655518395
2023-03-26T09:00:28.696Z,0.5819397993311036
2023-03-26T09:06:52.192Z,0.6254180602006689
2023-03-26T09:16:24.355Z,1.4280936454849498
2023-03-26T09:22:46.221Z,0.6722408026755853
2023-03-26T09:29:11.923Z,0.7792642140468228
2023-03-26T09:40:20.131Z,0.802675585284281
2023-03-26T09:46:46.192Z,1.2809364548494984
2023-03-26T09:53:07.779Z,0.939799331103679
2023-03-26T09:59:28.639Z,0.6622073578595318
2023-03-26T10:05:50.060Z,0.5919732441471572
2023-03-26T10:12:10.981Z,1.1237458193979932
2023-03-26T10:18:32.016Z,1.0434782608695652
2023-03-26T10:24:53.145Z,0.40468227424749165
2023-03-26T10:31:15.016Z,0.5016722408026756
2023-03-26T10:37:36.337Z,1.394648829431438
2023-03-26T10:44:07.273Z,1.3812709030100334
2023-03-26T10:54:24.929Z,1.2809364548494984
2023-03-26T11:01:16.180Z,1.4180602006688963
2023-03-26T11:07:37.982Z,1.3010033444816054
2023-03-26T11:13:59.495Z,1.2441471571906355
2023-03-26T11:20:21.231Z,1.6020066889632107
2023-03-26T11:26:43.282Z,1.3010033444816054
2023-03-26T11:34:05.349Z,1.568561872909699
2023-03-26T11:41:59.875Z,1.1705685618729098
2023-03-26T11:48:21.480Z,1.157190635451505
2023-03-26T11:54:43.185Z,1.3578595317725752
2023-03-26T12:01:06.182Z,2.117056856187291
2023-03-26T12:07:27.526Z,2.8963210702341136
2023-03-26T12:13:49.030Z,1.6688963210702341
2023-03-26T12:20:10.331Z,1.4648829431438126
2023-03-26T12:31:34.880Z,2.8361204013377925
2023-03-26T12:37:56.033Z,2.468227424749164
2023-03-26T12:44:47.303Z,1.9464882943143813
2023-03-26T12:51:18.634Z,2.3645484949832776
2023-03-26T13:04:19.166Z,1.9966555183946488
2023-03-26T13:10:40.746Z,2.0468227424749164
2023-03-26T13:17:02.195Z,2.849498327759197
2023-03-26T13:25:27.749Z,1.3578595317725752
2023-03-26T13:31:49.372Z,1.7157190635451505
2023-03-26T13:38:10.778Z,1.3779264214046822
2023-03-26T13:44:32.351Z,1.431438127090301
2023-03-26T13:55:28.227Z,1.9565217391304348
2023-03-26T14:02:53.262Z,1.68561872909699
2023-03-26T14:09:15.018Z,0.6220735785953178
2023-03-26T14:18:00.723Z,0.862876254180602
2023-03-26T14:24:22.086Z,1.0501672240802675
2023-03-26T14:30:44.044Z,1.1772575250836121
2023-03-26T14:37:05.617Z,0.5451505016722408
2023-03-26T14:43:27.299Z,0.939799331103679
2023-03-26T14:49:48.489Z,0.5217391304347826
2023-03-26T14:56:10.020Z,0.33444816053511706
2023-03-26T15:02:31.930Z,0.22742474916387959
2023-03-26T15:08:53.512Z,0.7123745819397993
2023-03-26T15:15:15.147Z,0.34782608695652173
2023-03-26T15:27:40.389Z,0.45484949832775917
2023-03-26T15:34:02.535Z,1.7892976588628762
2023-03-26T15:40:23.880Z,2.3043478260869565
2023-03-26T16:03:27.116Z,0.5484949832775919
2023-03-26T16:09:48.032Z,0.30434782608695654
2023-03-26T16:16:09.041Z,0.06688963210702341
2023-03-26T16:22:30.249Z,0.4214046822742475
2023-03-26T16:28:51.111Z,0.4080267558528428
2023-03-26T16:35:12.456Z,2.05685618729097
2023-03-26T16:46:33.437Z,1.2842809364548495
2023-03-26T16:52:54.481Z,0.9632107023411371
2023-03-26T16:59:15.908Z,0.8595317725752508
2023-03-26T17:05:37.574Z,1.0969899665551839
2023-03-26T17:12:00.556Z,1.4782608695652173
2023-03-26T17:18:25.217Z,2.036789297658863
2023-03-26T17:30:33.885Z,2.367892976588629
2023-03-26T17:36:55.614Z,3.260869565217391
2023-03-26T17:44:21.632Z,1.7792642140468227
2023-03-26T17:50:40.986Z,0.6120401337792643
2023-03-26T17:57:03.050Z,0.4080267558528428
2023-03-26T18:03:23.887Z,1.4481605351170568
2023-03-26T18:09:42.962Z,1.7892976588628762
2023-03-26T18:22:16.842Z,2.3745819397993313
2023-03-26T18:28:40.063Z,2.0066889632107023
2023-03-26T18:35:00.781Z,1.7993311036789297
2023-03-26T18:41:21.295Z,1.5418060200668897
2023-03-26T18:47:41.709Z,1.5016722408026757
2023-03-26T18:54:02.373Z,1.4180602006688963
2023-03-26T19:05:30.386Z,1.5217391304347827
2023-03-26T19:11:50.714Z,1.4749163879598661
2023-03-26T19:18:11.772Z,0.7892976588628763
2023-03-26T19:24:32.016Z,0.7224080267558528
2023-03-26T19:30:54.344Z,0.31438127090301005
2023-03-26T19:37:14.297Z,0.6120401337792643
2023-03-26T19:43:34.291Z,0.28762541806020064
2023-03-26T19:49:53.700Z,0.6254180602006689
2023-03-26T19:59:17.573Z,0.3210702341137124
2023-03-26T20:07:48.430Z,1.1638795986622072
2023-03-26T20:14:07.014Z,0.2608695652173913
2023-03-26T20:20:27.013Z,0.45484949832775917
2023-03-26T20:28:47.470Z,0.5317725752508361
2023-03-26T20:35:08.241Z,2.678929765886288
2023-03-26T20:41:29.238Z,2.6254180602006687
2023-03-26T20:49:27.010Z,0.8494983277591973
2023-03-26T21:05:08.257Z,1.140468227424749
2023-03-26T21:14:42.498Z,1.1270903010033444
2023-03-26T21:21:14.099Z,0.2842809364548495
2023-03-26T21:27:41.291Z,1.0501672240802675
2023-03-26T21:34:00.010Z,0.568561872909699
2023-03-26T21:42:49.661Z,2.3545150501672243
2023-03-26T21:58:39.389Z,0.3311036789297659
2023-03-26T22:04:58.297Z,0.17391304347826086
2023-03-26T22:11:17.217Z,0.2040133779264214
2023-03-26T22:21:17.244Z,0.16722408026755853
2023-03-26T22:27:44.138Z,0.24414715719063546
2023-03-26T22:34:04.259Z,0.10367892976588629
2023-03-26T22:40:22.855Z,0.25418060200668896
2023-03-26T22:50:15.375Z,0.22073578595317725
2023-03-26T22:56:35.729Z,0.30434782608695654
2023-03-26T23:07:15.444Z,0.14046822742474915
2023-03-26T23:13:35.646Z,0.0802675585284281
2023-03-26T23:19:54.360Z,0.09698996655518395
2023-03-26T23:26:13.034Z,0.11705685618729098
2023-03-26T23:33:16.762Z,0.2140468227424749
2023-03-26T23:43:00.688Z,0.12374581939799331
2023-03-26T23:54:41.174Z,0.0903010033444816
